createdAt,value
2018-01-24T00:02:09.440Z,1010.95
2018-01-24T00:07:10.372Z,1010.96
2018-01-24T00:12:05.118Z,1010.92
2018-01-24T00:17:05.010Z,1010.69
2018-01-24T00:22:00.152Z,1010.62
2018-01-24T00:26:57.053Z,1010.62
2018-01-24T00:31:57.689Z,1010.64
2018-01-24T00:36:52.367Z,1010.51
2018-01-24T00:41:48.883Z,1010.51
2018-01-24T00:46:45.381Z,1010.45
2018-01-24T00:51:44.906Z,1010.39
2018-01-24T00:56:40.153Z,1010.44
2018-01-24T01:01:35.966Z,1010.44
2018-01-24T01:06:31.626Z,1010.47
2018-01-24T01:11:31.357Z,1010.46
2018-01-24T01:16:26.491Z,1010.47
2018-01-24T01:21:26.876Z,1010.55
2018-01-24T01:26:25.713Z,1010.43
2018-01-24T01:31:21.813Z,1010.56
2018-01-24T01:36:17.397Z,1010.48
2018-01-24T01:41:14.174Z,1010.64
2018-01-24T01:46:15.048Z,1010.53
2018-01-24T01:51:13.915Z,1010.62
2018-01-24T01:56:10.236Z,1010.50
2018-01-24T02:01:06.475Z,1010.48
2018-01-24T02:06:02.115Z,1010.59
2018-01-24T02:10:57.722Z,1010.63
2018-01-24T02:15:53.636Z,1010.65
2018-01-24T02:20:49.441Z,1010.51
2018-01-24T02:25:50.355Z,1010.66
2018-01-24T02:30:49.174Z,1010.67
2018-01-24T02:35:47.777Z,1010.67
2018-01-24T02:40:46.788Z,1010.63
2018-01-24T02:45:45.777Z,1010.47
2018-01-24T02:50:40.377Z,1010.44
2018-01-24T02:55:40.130Z,1010.43
2018-01-24T03:00:37.767Z,1010.41
2018-01-24T03:05:38.049Z,1010.44
2018-01-24T03:10:33.736Z,1010.44
2018-01-24T03:15:29.197Z,1010.43
2018-01-24T03:20:29.239Z,1010.42
2018-01-24T03:25:25.058Z,1010.38
2018-01-24T03:30:20.503Z,1010.37
2018-01-24T03:35:16.447Z,1010.34
2018-01-24T03:40:17.388Z,1010.35
2018-01-24T03:45:15.859Z,1010.36
2018-01-24T03:50:15.126Z,1010.38
2018-01-24T03:55:10.780Z,1010.43
2018-01-24T04:00:06.700Z,1010.51
2018-01-24T04:05:06.601Z,1010.39
2018-01-24T04:10:05.622Z,1010.43
2018-01-24T04:15:01.700Z,1010.45
2018-01-24T04:19:57.211Z,1010.44
2018-01-24T04:24:53.951Z,1010.38
2018-01-24T04:29:53.390Z,1010.29
2018-01-24T04:34:48.382Z,1010.36
2018-01-24T04:39:44.221Z,1010.30
2018-01-24T04:44:40.821Z,1010.27
2018-01-24T04:49:41.783Z,1010.23
2018-01-24T04:54:42.044Z,1010.18
2018-01-24T04:59:36.883Z,1010.13
2018-01-24T05:04:37.624Z,1010.28
2018-01-24T05:09:38.507Z,1010.16
2018-01-24T05:14:33.088Z,1010.23
2018-01-24T05:19:29.197Z,1010.32
2018-01-24T05:24:29.005Z,1010.32
2018-01-24T05:29:24.565Z,1010.18
2018-01-24T05:34:19.980Z,1010.21
2018-01-24T05:39:16.047Z,1010.14
2018-01-24T05:44:15.825Z,1010.07
2018-01-24T05:49:11.155Z,1010.07
2018-01-24T05:54:06.906Z,1010.01
2018-01-24T05:59:02.708Z,1009.89
2018-01-24T06:03:58.601Z,1009.76
2018-01-24T06:08:58.352Z,1009.84
2018-01-24T06:13:57.420Z,1009.85
2018-01-24T06:18:52.189Z,1009.77
2018-01-24T06:23:49.172Z,1009.75
2018-01-24T06:28:48.668Z,1009.75
2018-01-24T06:33:44.669Z,1009.62
2018-01-24T06:38:40.875Z,1009.79
2018-01-24T06:43:41.762Z,1009.64
2018-01-24T06:48:41.349Z,1009.62
2018-01-24T06:53:39.777Z,1009.55
2018-01-24T06:58:39.942Z,1009.69
2018-01-24T07:03:38.486Z,1009.44
2018-01-24T07:08:33.542Z,1009.47
2018-01-24T07:13:33.218Z,1009.51
2018-01-24T07:18:32.364Z,1009.53
2018-01-24T07:23:28.415Z,1009.41
2018-01-24T07:28:25.639Z,1009.57
2018-01-24T07:33:21.347Z,1009.55
2018-01-24T07:38:22.087Z,1009.43
2018-01-24T07:43:20.850Z,1009.42
2018-01-24T07:48:19.925Z,1009.34
2018-01-24T07:53:14.535Z,1009.35
2018-01-24T07:58:10.551Z,1009.33
2018-01-24T08:03:11.416Z,1009.43
2018-01-24T08:08:10.839Z,1009.49
2018-01-24T08:13:06.113Z,1009.37
2018-01-24T08:18:05.881Z,1009.38
2018-01-24T08:23:02.010Z,1009.36
2018-01-24T08:27:58.525Z,1009.31
2018-01-24T08:32:54.186Z,1009.16
2018-01-24T08:37:49.987Z,1009.21
2018-01-24T08:42:45.919Z,1009.10
2018-01-24T08:47:41.801Z,1009.17
2018-01-24T08:52:37.559Z,1008.98
2018-01-24T08:57:34.158Z,1009.08
2018-01-24T09:02:30.261Z,1008.95
2018-01-24T09:07:26.305Z,1008.95
2018-01-24T09:12:23.207Z,1008.98
2018-01-24T09:17:19.180Z,1008.86
2018-01-24T09:22:18.975Z,1008.86
2018-01-24T09:27:17.782Z,1008.74
2018-01-24T09:32:12.697Z,1008.77
2018-01-24T09:37:09.247Z,1008.74
2018-01-24T09:42:05.291Z,1008.73
2018-01-24T09:47:01.223Z,1008.65
2018-01-24T09:51:57.403Z,1008.62
2018-01-24T09:56:53.364Z,1008.70
2018-01-24T10:01:53.074Z,1008.68
2018-01-24T10:06:49.383Z,1008.69
2018-01-24T10:11:50.128Z,1008.49
2018-01-24T10:16:45.950Z,1008.51
2018-01-24T10:21:42.822Z,1008.38
2018-01-24T10:26:42.358Z,1008.30
2018-01-24T10:31:37.498Z,1008.35
2018-01-24T10:36:37.326Z,1008.09
2018-01-24T10:41:33.059Z,1007.95
2018-01-24T10:46:30.429Z,1007.95
2018-01-24T10:51:25.738Z,1007.90
2018-01-24T10:56:27.195Z,1007.79
2018-01-24T11:01:27.276Z,1007.74
2018-01-24T11:06:23.295Z,1007.57
2018-01-24T11:16:19.107Z,1007.37
2018-01-24T11:21:19.251Z,1007.24
2018-01-24T11:26:18.535Z,1007.15
2018-01-24T11:31:14.496Z,1007.01
2018-01-24T11:36:13.974Z,1007.10
2018-01-24T11:41:09.020Z,1006.91
2018-01-24T11:46:05.023Z,1006.67
2018-01-24T11:51:01.837Z,1006.83
2018-01-24T11:56:01.322Z,1006.63
2018-01-24T12:00:55.927Z,1006.54
2018-01-24T12:05:52.549Z,1006.51
2018-01-24T12:10:48.694Z,1006.35
2018-01-24T12:15:44.934Z,1006.29
2018-01-24T12:20:44.518Z,1006.23
2018-01-24T12:25:39.430Z,1006.19
2018-01-24T12:30:39.560Z,1006.06
2018-01-24T12:35:34.517Z,1005.99
2018-01-24T12:40:30.361Z,1005.99
2018-01-24T12:45:26.242Z,1005.97
2018-01-24T12:50:22.951Z,1005.86
2018-01-24T12:55:18.475Z,1005.76
2018-01-24T13:00:15.321Z,1005.74
2018-01-24T13:05:11.171Z,1005.68
2018-01-24T13:10:06.767Z,1005.59
2018-01-24T13:15:03.143Z,1005.69
2018-01-24T13:19:59.050Z,1005.54
2018-01-24T13:24:54.551Z,1005.35
2018-01-24T13:29:50.712Z,1005.40
2018-01-24T13:34:47.826Z,1005.38
2018-01-24T13:39:44.290Z,1005.21
2018-01-24T13:44:44.026Z,1005.15
2018-01-24T13:49:38.921Z,1005.10
2018-01-24T13:54:34.732Z,1004.96
2018-01-24T13:59:30.795Z,1005.02
2018-01-24T14:04:27.645Z,1005.00
2018-01-24T14:09:27.355Z,1004.89
2018-01-24T14:14:21.919Z,1004.83
2018-01-24T14:19:17.986Z,1004.78
2018-01-24T14:24:14.760Z,1004.61
2018-01-24T14:29:10.262Z,1004.53
2018-01-24T14:34:06.111Z,1004.45
2018-01-24T14:39:05.803Z,1004.32
2018-01-24T14:44:02.249Z,1004.47
2018-01-24T14:49:01.785Z,1004.52
2018-01-24T14:54:00.349Z,1004.61
2018-01-24T14:58:55.035Z,1004.63
2018-01-24T15:03:50.653Z,1004.61
2018-01-24T15:08:47.448Z,1004.62
2018-01-24T15:13:46.952Z,1004.71
2018-01-24T15:18:42.071Z,1004.68
2018-01-24T15:23:41.697Z,1004.62
2018-01-24T15:28:40.624Z,1004.36
2018-01-24T15:33:40.562Z,1004.55
2018-01-24T15:38:35.326Z,1004.46
2018-01-24T15:43:36.039Z,1004.41
2018-01-24T15:48:35.126Z,1004.46
2018-01-24T15:53:31.588Z,1004.52
2018-01-24T15:58:33.118Z,1004.35
2018-01-24T16:03:27.681Z,1004.40
2018-01-24T16:08:27.256Z,1004.41
2018-01-24T16:13:22.230Z,1004.39
2018-01-24T16:18:23.422Z,1004.31
2018-01-24T16:23:19.283Z,1004.15
2018-01-24T16:28:15.808Z,1004.16
2018-01-24T16:33:16.237Z,1004.04
2018-01-24T16:38:12.214Z,1004.15
2018-01-24T16:43:07.721Z,1004.12
2018-01-24T16:48:03.763Z,1003.81
2018-01-24T16:52:59.569Z,1003.96
2018-01-24T16:58:00.065Z,1003.95
2018-01-24T17:02:59.033Z,1003.96
2018-01-24T17:07:57.749Z,1004.01
2018-01-24T17:12:52.640Z,1003.83
2018-01-24T17:17:49.455Z,1003.81
2018-01-24T17:22:49.455Z,1003.83
2018-01-24T17:27:48.518Z,1003.79
2018-01-24T17:32:49.037Z,1003.86
2018-01-24T17:37:43.748Z,1003.80
2018-01-24T17:42:41.692Z,1003.87
2018-01-24T17:47:38.229Z,1003.83
2018-01-24T17:52:33.819Z,1003.82
2018-01-24T17:57:30.879Z,1003.66
2018-01-24T18:02:30.789Z,1003.60
2018-01-24T18:07:25.726Z,1003.54
2018-01-24T18:12:26.908Z,1003.47
2018-01-24T18:17:21.724Z,1003.50
2018-01-24T18:22:21.767Z,1003.41
2018-01-24T18:27:21.620Z,1003.36
2018-01-24T18:32:21.209Z,1003.36
2018-01-24T18:37:19.912Z,1003.45
2018-01-24T18:42:14.916Z,1003.34
2018-01-24T18:47:11.929Z,1003.19
2018-01-24T18:52:08.367Z,1003.27
2018-01-24T18:57:07.974Z,1003.25
2018-01-24T19:02:03.029Z,1003.05
2018-01-24T19:06:58.826Z,1003.07
2018-01-24T19:11:54.612Z,1003.12
2018-01-24T19:16:50.307Z,1003.06
2018-01-24T19:21:50.784Z,1003.29
2018-01-24T19:26:51.472Z,1003.30
2018-01-24T19:31:49.946Z,1003.08
2018-01-24T19:36:45.017Z,1003.08
2018-01-24T19:41:40.703Z,1003.04
2018-01-24T19:46:37.677Z,1003.01
2018-01-24T19:51:37.202Z,1002.94
2018-01-24T19:56:37.000Z,1002.92
2018-01-24T20:01:33.009Z,1003.00
2018-01-24T20:06:28.357Z,1002.99
2018-01-24T20:11:25.389Z,1003.05
2018-01-24T20:16:25.484Z,1002.91
2018-01-24T20:21:23.841Z,1002.77
2018-01-24T20:26:19.040Z,1002.67
2018-01-24T20:31:15.713Z,1002.55
2018-01-24T20:36:15.796Z,1002.75
2018-01-24T20:41:10.902Z,1002.64
2018-01-24T20:46:07.666Z,1002.58
2018-01-24T20:51:04.537Z,1002.53
2018-01-24T21:01:03.365Z,1002.36
2018-01-24T21:06:03.267Z,1002.37
2018-01-24T21:10:58.853Z,1002.50
2018-01-24T21:15:59.072Z,1002.45
2018-01-24T21:20:57.800Z,1002.58
2018-01-24T21:25:54.719Z,1002.52
2018-01-24T21:30:49.715Z,1002.55
2018-01-24T21:35:45.654Z,1002.48
2018-01-24T21:40:42.391Z,1002.54
2018-01-24T21:45:42.707Z,1002.50
2018-01-24T21:50:41.225Z,1002.42
2018-01-24T21:55:37.493Z,1002.40
2018-01-24T22:00:34.909Z,1002.45
2018-01-24T22:05:30.477Z,1002.43
2018-01-24T22:10:31.321Z,1002.42
2018-01-24T22:15:26.205Z,1002.36
2018-01-24T22:20:23.141Z,1002.46
2018-01-24T22:25:18.304Z,1002.34
2018-01-24T22:30:15.254Z,1002.49
2018-01-24T22:35:14.805Z,1002.46
2018-01-24T22:40:10.679Z,1002.36
2018-01-24T22:45:07.139Z,1002.32
2018-01-24T22:50:08.359Z,1002.25
2018-01-24T22:55:03.202Z,1002.37
2018-01-24T22:59:59.074Z,1002.43
2018-01-24T23:04:55.410Z,1002.37
2018-01-24T23:09:51.453Z,1002.25
2018-01-24T23:14:51.566Z,1002.32
2018-01-24T23:19:50.834Z,1002.32
2018-01-24T23:24:50.526Z,1002.38
2018-01-24T23:29:45.097Z,1002.60
2018-01-24T23:34:44.767Z,1002.45
2018-01-24T23:39:40.102Z,1002.44
2018-01-24T23:44:40.011Z,1002.57
2018-01-24T23:49:36.061Z,1002.53
2018-01-24T23:54:32.411Z,1002.45
2018-01-24T23:59:28.441Z,1002.58
